Accueil
METAR-TAF:

METAR-TAF

Aéroports :

Aéroport international de Bâle-Mulhouse-Fribourg

Bâle-Mulhouse, France

latitude: 47-36N, longitude: 007-31E, altitude: 270 m

Observation

Le bulletin a été fait il y a 37 minutes, à 15:30 UTC
Vent 12 kt de nord, variant entre nord/nord-ouest et nord/nord-est
Température 20°C
Humidité 30%
Pression 1017 hPa
Visibilité 10 km ou plus
pas de nuages en-dessous de 1500 mètres et pas de cumulonimbus.

METAR: LFSB 281530Z 36012KT 330V030 CAVOK 20/02 Q1017 NOSIG

Heure: 18:07 (16:07 UTC)

Prévision

Le bulletin a été fait il y a 5 heures et 7 minutes, à 11:00 UTC
Prévision valable du 28 à 12 UTC au 29 à 12 UTC
Vent 10 kt de nord
Visibilité 10 km ou plus
Quelques nuages à une hauteur de 5000 ft
Probabilité 40% :
Temporairement
du 29 à 09 UTC au 29 à 12 UTC
Quelques nuages à une hauteur de 6000 ft, Cumulus congestus.

TAF: LFSB 281100Z 2812/2912 36010KT 9999 FEW050 PROB40 TEMPO 2909/2912 FEW060TCU

Observations et prévisions météorologiques de plus de 4000 aéroports (messages METAR et TAF).

Les stations disponibles sont représentées par des disques jaunes et rouges sur la carte.

Passer la souris dessus pour voir le nom de la station.

Cliquer dessus pour voir les observations et prévisions météorologiques.

Pour changer de carte: cliquez sur les boutons verts avec une croix noire pour zoomer, sur le bouton vert avec un tiret pour effectuer un zoom arrière, ou sur les flèches vertes pour les cartes adjacentes.


METAR-TAF: